sensor_id;sensor_type;location;lat;lon;timestamp;P1;durP1;ratioP1;P2;durP2;ratioP2
80653;SDS011;70020;45.524;10.240;2023-06-04T00:00:49;7.93;;;5.55;;
80653;SDS011;70020;45.524;10.240;2023-06-04T00:03:15;6.38;;;4.90;;
80653;SDS011;70020;45.524;10.240;2023-06-04T00:08:07;8.05;;;4.72;;
80653;SDS011;70020;45.524;10.240;2023-06-04T00:10:33;6.15;;;4.78;;
80653;SDS011;70020;45.524;10.240;2023-06-04T00:15:25;7.43;;;5.32;;
80653;SDS011;70020;45.524;10.240;2023-06-04T00:20:17;6.63;;;4.90;;
80653;SDS011;70020;45.524;10.240;2023-06-04T00:22:43;6.95;;;4.80;;
80653;SDS011;70020;45.524;10.240;2023-06-04T00:27:35;7.75;;;4.78;;
80653;SDS011;70020;45.524;10.240;2023-06-04T00:30:02;6.70;;;4.78;;
80653;SDS011;70020;45.524;10.240;2023-06-04T00:32:29;6.32;;;5.18;;
80653;SDS011;70020;45.524;10.240;2023-06-04T00:37:23;8.65;;;5.93;;
80653;SDS011;70020;45.524;10.240;2023-06-04T00:39:50;6.03;;;5.22;;
80653;SDS011;70020;45.524;10.240;2023-06-04T00:42:16;9.60;;;5.72;;
80653;SDS011;70020;45.524;10.240;2023-06-04T00:44:42;8.95;;;5.55;;
80653;SDS011;70020;45.524;10.240;2023-06-04T00:47:13;11.93;;;5.95;;
80653;SDS011;70020;45.524;10.240;2023-06-04T00:49:39;9.68;;;5.55;;
80653;SDS011;70020;45.524;10.240;2023-06-04T00:52:06;9.43;;;5.82;;
80653;SDS011;70020;45.524;10.240;2023-06-04T00:54:33;9.20;;;6.20;;
80653;SDS011;70020;45.524;10.240;2023-06-04T00:57:00;9.40;;;7.25;;
80653;SDS011;70020;45.524;10.240;2023-06-04T00:59:26;11.07;;;5.88;;
80653;SDS011;70020;45.524;10.240;2023-06-04T01:04:29;11.20;;;6.43;;
80653;SDS011;70020;45.524;10.240;2023-06-04T01:06:59;13.40;;;6.90;;
80653;SDS011;70020;45.524;10.240;2023-06-04T01:09:28;12.40;;;6.60;;
80653;SDS011;70020;45.524;10.240;2023-06-04T01:11:54;8.38;;;5.97;;
80653;SDS011;70020;45.524;10.240;2023-06-04T01:14:23;8.20;;;5.68;;
80653;SDS011;70020;45.524;10.240;2023-06-04T01:16:57;8.00;;;4.72;;
80653;SDS011;70020;45.524;10.240;2023-06-04T01:22:13;5.32;;;4.28;;
80653;SDS011;70020;45.524;10.240;2023-06-04T01:24:52;7.43;;;4.60;;
80653;SDS011;70020;45.524;10.240;2023-06-04T01:27:21;6.88;;;5.13;;
80653;SDS011;70020;45.524;10.240;2023-06-04T01:29:48;8.23;;;5.43;;
80653;SDS011;70020;45.524;10.240;2023-06-04T01:32:15;9.40;;;5.70;;
80653;SDS011;70020;45.524;10.240;2023-06-04T01:34:46;7.70;;;6.05;;
80653;SDS011;70020;45.524;10.240;2023-06-04T01:37:12;10.02;;;5.40;;
80653;SDS011;70020;45.524;10.240;2023-06-04T01:39:37;7.75;;;5.43;;
80653;SDS011;70020;45.524;10.240;2023-06-04T01:44:30;8.93;;;5.40;;
80653;SDS011;70020;45.524;10.240;2023-06-04T01:46:56;7.95;;;5.97;;
80653;SDS011;70020;45.524;10.240;2023-06-04T01:49:23;8.98;;;6.38;;
80653;SDS011;70020;45.524;10.240;2023-06-04T01:51:49;9.85;;;6.20;;
80653;SDS011;70020;45.524;10.240;2023-06-04T01:54:15;6.85;;;5.93;;
80653;SDS011;70020;45.524;10.240;2023-06-04T01:56:41;8.18;;;6.15;;
80653;SDS011;70020;45.524;10.240;2023-06-04T02:01:33;7.95;;;6.40;;
80653;SDS011;70020;45.524;10.240;2023-06-04T02:03:59;10.70;;;5.97;;
80653;SDS011;70020;45.524;10.240;2023-06-04T02:06:25;8.55;;;6.45;;
80653;SDS011;70020;45.524;10.240;2023-06-04T02:08:55;8.82;;;6.72;;
80653;SDS011;70020;45.524;10.240;2023-06-04T02:13:47;8.10;;;5.90;;
80653;SDS011;70020;45.524;10.240;2023-06-04T02:16:12;8.57;;;6.03;;
80653;SDS011;70020;45.524;10.240;2023-06-04T02:18:38;7.55;;;5.68;;
80653;SDS011;70020;45.524;10.240;2023-06-04T02:21:04;6.97;;;5.30;;
80653;SDS011;70020;45.524;10.240;2023-06-04T02:23:30;7.82;;;5.63;;
80653;SDS011;70020;45.524;10.240;2023-06-04T02:25:56;6.75;;;5.45;;
80653;SDS011;70020;45.524;10.240;2023-06-04T02:28:21;6.47;;;5.03;;
80653;SDS011;70020;45.524;10.240;2023-06-04T02:33:13;6.45;;;4.20;;
80653;SDS011;70020;45.524;10.240;2023-06-04T02:38:04;4.97;;;3.90;;
80653;SDS011;70020;45.524;10.240;2023-06-04T02:40:30;6.63;;;4.70;;
80653;SDS011;70020;45.524;10.240;2023-06-04T02:42:56;6.05;;;4.32;;
80653;SDS011;70020;45.524;10.240;2023-06-04T02:45:23;5.05;;;4.13;;
80653;SDS011;70020;45.524;10.240;2023-06-04T02:47:48;5.07;;;3.72;;
80653;SDS011;70020;45.524;10.240;2023-06-04T02:50:14;4.90;;;4.40;;
80653;SDS011;70020;45.524;10.240;2023-06-04T02:52:40;5.65;;;4.13;;
80653;SDS011;70020;45.524;10.240;2023-06-04T02:55:06;5.72;;;4.35;;
80653;SDS011;70020;45.524;10.240;2023-06-04T02:57:33;6.97;;;5.00;;
80653;SDS011;70020;45.524;10.240;2023-06-04T03:02:28;5.82;;;4.88;;
80653;SDS011;70020;45.524;10.240;2023-06-04T03:04:54;5.10;;;4.60;;
80653;SDS011;70020;45.524;10.240;2023-06-04T03:07:20;6.93;;;4.88;;
80653;SDS011;70020;45.524;10.240;2023-06-04T03:09:47;5.55;;;4.55;;
80653;SDS011;70020;45.524;10.240;2023-06-04T03:12:14;5.45;;;4.80;;
80653;SDS011;70020;45.524;10.240;2023-06-04T03:14:39;5.43;;;4.70;;
80653;SDS011;70020;45.524;10.240;2023-06-04T03:17:05;5.35;;;4.40;;
80653;SDS011;70020;45.524;10.240;2023-06-04T03:19:39;6.90;;;4.43;;
80653;SDS011;70020;45.524;10.240;2023-06-04T03:22:06;4.82;;;4.20;;
80653;SDS011;70020;45.524;10.240;2023-06-04T03:24:34;8.25;;;4.47;;
80653;SDS011;70020;45.524;10.240;2023-06-04T03:27:01;4.97;;;3.90;;
80653;SDS011;70020;45.524;10.240;2023-06-04T03:29:27;4.80;;;4.07;;
80653;SDS011;70020;45.524;10.240;2023-06-04T03:31:53;6.38;;;4.00;;
80653;SDS011;70020;45.524;10.240;2023-06-04T03:34:19;5.70;;;4.03;;
80653;SDS011;70020;45.524;10.240;2023-06-04T03:36:45;4.90;;;4.40;;
80653;SDS011;70020;45.524;10.240;2023-06-04T03:39:11;5.82;;;4.40;;
80653;SDS011;70020;45.524;10.240;2023-06-04T03:41:36;5.28;;;4.22;;
80653;SDS011;70020;45.524;10.240;2023-06-04T03:44:02;4.78;;;4.25;;
80653;SDS011;70020;45.524;10.240;2023-06-04T03:46:28;5.68;;;4.85;;
80653;SDS011;70020;45.524;10.240;2023-06-04T03:48:58;7.38;;;5.03;;
80653;SDS011;70020;45.524;10.240;2023-06-04T03:51:24;6.18;;;5.57;;
80653;SDS011;70020;45.524;10.240;2023-06-04T03:53:50;6.45;;;5.38;;
80653;SDS011;70020;45.524;10.240;2023-06-04T03:56:16;9.65;;;5.18;;
80653;SDS011;70020;45.524;10.240;2023-06-04T03:58:41;8.93;;;5.93;;
80653;SDS011;70020;45.524;10.240;2023-06-04T04:01:07;7.93;;;5.63;;
80653;SDS011;70020;45.524;10.240;2023-06-04T04:03:35;6.68;;;5.22;;
80653;SDS011;70020;45.524;10.240;2023-06-04T04:08:27;7.25;;;5.45;;
80653;SDS011;70020;45.524;10.240;2023-06-04T04:10:56;6.75;;;5.15;;
80653;SDS011;70020;45.524;10.240;2023-06-04T04:13:24;5.60;;;4.90;;
80653;SDS011;70020;45.524;10.240;2023-06-04T04:15:50;5.27;;;4.63;;
80653;SDS011;70020;45.524;10.240;2023-06-04T04:18:21;5.43;;;4.57;;
80653;SDS011;70020;45.524;10.240;2023-06-04T04:20:47;7.45;;;5.43;;
80653;SDS011;70020;45.524;10.240;2023-06-04T04:23:13;7.65;;;5.35;;
80653;SDS011;70020;45.524;10.240;2023-06-04T04:25:39;5.93;;;5.25;;
80653;SDS011;70020;45.524;10.240;2023-06-04T04:28:04;7.43;;;5.40;;
80653;SDS011;70020;45.524;10.240;2023-06-04T04:30:34;8.98;;;5.93;;
80653;SDS011;70020;45.524;10.240;2023-06-04T04:33:00;6.65;;;5.78;;
80653;SDS011;70020;45.524;10.240;2023-06-04T04:35:27;7.68;;;6.20;;
80653;SDS011;70020;45.524;10.240;2023-06-04T04:37:54;6.88;;;5.50;;
80653;SDS011;70020;45.524;10.240;2023-06-04T04:40:21;7.40;;;6.18;;
80653;SDS011;70020;45.524;10.240;2023-06-04T04:42:46;7.38;;;5.68;;
80653;SDS011;70020;45.524;10.240;2023-06-04T04:45:12;6.45;;;5.40;;
80653;SDS011;70020;45.524;10.240;2023-06-04T04:47:38;7.32;;;5.28;;
80653;SDS011;70020;45.524;10.240;2023-06-04T04:50:06;8.73;;;5.82;;
80653;SDS011;70020;45.524;10.240;2023-06-04T04:52:33;7.65;;;6.03;;
80653;SDS011;70020;45.524;10.240;2023-06-04T04:54:58;6.50;;;5.32;;
80653;SDS011;70020;45.524;10.240;2023-06-04T04:57:25;6.05;;;5.45;;
80653;SDS011;70020;45.524;10.240;2023-06-04T04:59:50;6.90;;;4.97;;
80653;SDS011;70020;45.524;10.240;2023-06-04T05:02:20;6.35;;;5.43;;
80653;SDS011;70020;45.524;10.240;2023-06-04T05:04:46;6.10;;;4.67;;
80653;SDS011;70020;45.524;10.240;2023-06-04T05:07:11;8.77;;;5.15;;
80653;SDS011;70020;45.524;10.240;2023-06-04T05:09:37;5.07;;;4.45;;
80653;SDS011;70020;45.524;10.240;2023-06-04T05:12:03;7.45;;;4.93;;
80653;SDS011;70020;45.524;10.240;2023-06-04T05:14:29;7.13;;;5.30;;
80653;SDS011;70020;45.524;10.240;2023-06-04T05:16:55;5.53;;;4.63;;
80653;SDS011;70020;45.524;10.240;2023-06-04T05:19:23;7.22;;;5.38;;
80653;SDS011;70020;45.524;10.240;2023-06-04T05:21:49;6.10;;;4.45;;
80653;SDS011;70020;45.524;10.240;2023-06-04T05:24:16;6.40;;;4.47;;
80653;SDS011;70020;45.524;10.240;2023-06-04T05:26:41;8.27;;;5.30;;
80653;SDS011;70020;45.524;10.240;2023-06-04T05:29:07;6.03;;;5.22;;
80653;SDS011;70020;45.524;10.240;2023-06-04T05:33:59;7.88;;;4.63;;
80653;SDS011;70020;45.524;10.240;2023-06-04T05:36:29;8.20;;;5.13;;
80653;SDS011;70020;45.524;10.240;2023-06-04T05:38:56;7.28;;;5.43;;
80653;SDS011;70020;45.524;10.240;2023-06-04T05:41:25;6.35;;;5.38;;
80653;SDS011;70020;45.524;10.240;2023-06-04T05:43:51;10.98;;;5.50;;
80653;SDS011;70020;45.524;10.240;2023-06-04T05:46:17;8.65;;;6.20;;
80653;SDS011;70020;45.524;10.240;2023-06-04T05:48:43;7.35;;;5.20;;
80653;SDS011;70020;45.524;10.240;2023-06-04T05:51:09;6.55;;;5.07;;
80653;SDS011;70020;45.524;10.240;2023-06-04T05:53:34;9.20;;;5.72;;
80653;SDS011;70020;45.524;10.240;2023-06-04T05:56:00;8.32;;;6.18;;
80653;SDS011;70020;45.524;10.240;2023-06-04T05:58:26;6.38;;;4.90;;
80653;SDS011;70020;45.524;10.240;2023-06-04T06:00:51;6.80;;;5.30;;
80653;SDS011;70020;45.524;10.240;2023-06-04T06:03:18;6.22;;;5.20;;
80653;SDS011;70020;45.524;10.240;2023-06-04T06:05:44;6.65;;;5.50;;
80653;SDS011;70020;45.524;10.240;2023-06-04T06:08:11;6.80;;;4.82;;
80653;SDS011;70020;45.524;10.240;2023-06-04T06:10:36;8.65;;;5.43;;
80653;SDS011;70020;45.524;10.240;2023-06-04T06:13:03;5.65;;;4.85;;
80653;SDS011;70020;45.524;10.240;2023-06-04T06:15:29;8.43;;;5.05;;
80653;SDS011;70020;45.524;10.240;2023-06-04T06:17:55;7.65;;;5.07;;
80653;SDS011;70020;45.524;10.240;2023-06-04T06:20:21;5.85;;;5.03;;
80653;SDS011;70020;45.524;10.240;2023-06-04T06:25:17;5.95;;;4.45;;
80653;SDS011;70020;45.524;10.240;2023-06-04T06:27:42;6.45;;;4.60;;
80653;SDS011;70020;45.524;10.240;2023-06-04T06:30:08;6.47;;;4.80;;
80653;SDS011;70020;45.524;10.240;2023-06-04T06:32:34;5.43;;;4.85;;
80653;SDS011;70020;45.524;10.240;2023-06-04T06:37:26;5.88;;;4.53;;
80653;SDS011;70020;45.524;10.240;2023-06-04T06:42:17;8.80;;;4.43;;
80653;SDS011;70020;45.524;10.240;2023-06-04T06:44:44;6.95;;;4.88;;
80653;SDS011;70020;45.524;10.240;2023-06-04T06:47:10;6.53;;;4.78;;
80653;SDS011;70020;45.524;10.240;2023-06-04T06:49:38;5.68;;;4.80;;
80653;SDS011;70020;45.524;10.240;2023-06-04T06:52:07;5.95;;;5.10;;
80653;SDS011;70020;45.524;10.240;2023-06-04T06:54:34;7.32;;;4.93;;
80653;SDS011;70020;45.524;10.240;2023-06-04T06:56:59;6.78;;;4.43;;
80653;SDS011;70020;45.524;10.240;2023-06-04T06:59:25;6.93;;;5.30;;
80653;SDS011;70020;45.524;10.240;2023-06-04T07:01:52;8.98;;;4.25;;
80653;SDS011;70020;45.524;10.240;2023-06-04T07:04:17;6.15;;;4.32;;
80653;SDS011;70020;45.524;10.240;2023-06-04T07:06:44;7.22;;;4.75;;
80653;SDS011;70020;45.524;10.240;2023-06-04T07:11:35;5.40;;;4.65;;
80653;SDS011;70020;45.524;10.240;2023-06-04T07:16:29;6.18;;;5.25;;
80653;SDS011;70020;45.524;10.240;2023-06-04T07:18:55;5.95;;;5.35;;
80653;SDS011;70020;45.524;10.240;2023-06-04T07:23:48;9.10;;;5.25;;
80653;SDS011;70020;45.524;10.240;2023-06-04T07:26:16;6.75;;;4.70;;
80653;SDS011;70020;45.524;10.240;2023-06-04T07:28:42;5.78;;;4.93;;
80653;SDS011;70020;45.524;10.240;2023-06-04T07:33:34;6.18;;;4.50;;
80653;SDS011;70020;45.524;10.240;2023-06-04T07:36:07;6.32;;;4.65;;
80653;SDS011;70020;45.524;10.240;2023-06-04T07:38:34;7.43;;;4.65;;
80653;SDS011;70020;45.524;10.240;2023-06-04T07:41:00;6.85;;;4.78;;
80653;SDS011;70020;45.524;10.240;2023-06-04T07:43:26;5.88;;;3.92;;
80653;SDS011;70020;45.524;10.240;2023-06-04T07:48:18;5.93;;;4.32;;
80653;SDS011;70020;45.524;10.240;2023-06-04T07:53:09;6.28;;;3.85;;
80653;SDS011;70020;45.524;10.240;2023-06-04T07:58:01;7.75;;;4.97;;
80653;SDS011;70020;45.524;10.240;2023-06-04T08:02:52;6.15;;;4.85;;
80653;SDS011;70020;45.524;10.240;2023-06-04T08:07:43;7.55;;;4.80;;
80653;SDS011;70020;45.524;10.240;2023-06-04T08:10:11;9.50;;;4.90;;
80653;SDS011;70020;45.524;10.240;2023-06-04T08:15:02;8.23;;;5.38;;
80653;SDS011;70020;45.524;10.240;2023-06-04T08:17:30;7.53;;;5.30;;
80653;SDS011;70020;45.524;10.240;2023-06-04T08:22:22;7.70;;;4.70;;
80653;SDS011;70020;45.524;10.240;2023-06-04T08:27:13;9.43;;;5.50;;
80653;SDS011;70020;45.524;10.240;2023-06-04T08:32:05;8.85;;;4.88;;
80653;SDS011;70020;45.524;10.240;2023-06-04T08:34:32;6.80;;;4.93;;
80653;SDS011;70020;45.524;10.240;2023-06-04T08:39:23;7.60;;;4.80;;
80653;SDS011;70020;45.524;10.240;2023-06-04T08:44:16;7.13;;;5.15;;
80653;SDS011;70020;45.524;10.240;2023-06-04T08:46:43;5.63;;;4.57;;
80653;SDS011;70020;45.524;10.240;2023-06-04T08:49:09;12.32;;;5.32;;
80653;SDS011;70020;45.524;10.240;2023-06-04T08:51:38;7.95;;;5.10;;
80653;SDS011;70020;45.524;10.240;2023-06-04T08:56:34;7.32;;;5.28;;
80653;SDS011;70020;45.524;10.240;2023-06-04T08:59:02;10.15;;;4.93;;
80653;SDS011;70020;45.524;10.240;2023-06-04T09:01:31;8.15;;;5.05;;
80653;SDS011;70020;45.524;10.240;2023-06-04T09:03:59;6.80;;;5.05;;
80653;SDS011;70020;45.524;10.240;2023-06-04T09:06:26;9.32;;;5.38;;
80653;SDS011;70020;45.524;10.240;2023-06-04T09:08:56;6.40;;;4.90;;
80653;SDS011;70020;45.524;10.240;2023-06-04T09:11:29;6.22;;;4.75;;
80653;SDS011;70020;45.524;10.240;2023-06-04T09:14:00;6.65;;;5.25;;
80653;SDS011;70020;45.524;10.240;2023-06-04T09:16:45;9.60;;;5.80;;
80653;SDS011;70020;45.524;10.240;2023-06-04T09:19:15;6.20;;;5.13;;
80653;SDS011;70020;45.524;10.240;2023-06-04T09:21:51;8.15;;;5.80;;
80653;SDS011;70020;45.524;10.240;2023-06-04T09:24:21;6.55;;;5.20;;
80653;SDS011;70020;45.524;10.240;2023-06-04T09:26:49;7.05;;;5.30;;
80653;SDS011;70020;45.524;10.240;2023-06-04T09:29:15;8.40;;;6.00;;
80653;SDS011;70020;45.524;10.240;2023-06-04T09:31:44;9.68;;;5.80;;
80653;SDS011;70020;45.524;10.240;2023-06-04T09:34:11;7.45;;;5.75;;
80653;SDS011;70020;45.524;10.240;2023-06-04T09:39:04;9.60;;;6.72;;
80653;SDS011;70020;45.524;10.240;2023-06-04T09:44:06;7.45;;;6.45;;
80653;SDS011;70020;45.524;10.240;2023-06-04T09:46:35;8.30;;;6.53;;
80653;SDS011;70020;45.524;10.240;2023-06-04T09:51:28;8.70;;;6.28;;
80653;SDS011;70020;45.524;10.240;2023-06-04T09:53:55;11.18;;;6.72;;
80653;SDS011;70020;45.524;10.240;2023-06-04T09:56:21;8.80;;;6.10;;
80653;SDS011;70020;45.524;10.240;2023-06-04T09:58:48;8.68;;;6.22;;
80653;SDS011;70020;45.524;10.240;2023-06-04T10:01:14;8.98;;;6.35;;
80653;SDS011;70020;45.524;10.240;2023-06-04T10:03:40;9.63;;;6.85;;
80653;SDS011;70020;45.524;10.240;2023-06-04T10:06:12;9.40;;;6.38;;
80653;SDS011;70020;45.524;10.240;2023-06-04T10:08:41;7.80;;;6.07;;
80653;SDS011;70020;45.524;10.240;2023-06-04T10:11:11;9.00;;;6.18;;
80653;SDS011;70020;45.524;10.240;2023-06-04T10:13:38;10.02;;;7.18;;
80653;SDS011;70020;45.524;10.240;2023-06-04T10:16:10;7.40;;;5.95;;
80653;SDS011;70020;45.524;10.240;2023-06-04T10:18:37;9.18;;;6.10;;
80653;SDS011;70020;45.524;10.240;2023-06-04T10:21:04;7.97;;;5.90;;
80653;SDS011;70020;45.524;10.240;2023-06-04T10:23:31;7.90;;;5.60;;
80653;SDS011;70020;45.524;10.240;2023-06-04T10:25:57;7.38;;;5.78;;
80653;SDS011;70020;45.524;10.240;2023-06-04T10:28:25;8.05;;;6.13;;
80653;SDS011;70020;45.524;10.240;2023-06-04T10:30:51;9.20;;;6.53;;
80653;SDS011;70020;45.524;10.240;2023-06-04T10:33:20;8.57;;;6.05;;
80653;SDS011;70020;45.524;10.240;2023-06-04T10:35:49;10.05;;;5.90;;
80653;SDS011;70020;45.524;10.240;2023-06-04T10:38:15;7.72;;;5.85;;
80653;SDS011;70020;45.524;10.240;2023-06-04T10:40:43;6.60;;;5.47;;
80653;SDS011;70020;45.524;10.240;2023-06-04T10:43:13;7.13;;;5.07;;
80653;SDS011;70020;45.524;10.240;2023-06-04T10:45:41;10.00;;;6.20;;
80653;SDS011;70020;45.524;10.240;2023-06-04T10:48:08;9.10;;;5.35;;
80653;SDS011;70020;45.524;10.240;2023-06-04T10:50:48;7.65;;;5.70;;
80653;SDS011;70020;45.524;10.240;2023-06-04T10:53:16;7.50;;;5.53;;
80653;SDS011;70020;45.524;10.240;2023-06-04T10:55:43;6.30;;;5.13;;
80653;SDS011;70020;45.524;10.240;2023-06-04T10:58:09;9.35;;;5.90;;
80653;SDS011;70020;45.524;10.240;2023-06-04T11:00:42;7.57;;;5.63;;
80653;SDS011;70020;45.524;10.240;2023-06-04T11:03:13;8.77;;;6.20;;
80653;SDS011;70020;45.524;10.240;2023-06-04T11:08:07;6.93;;;5.50;;
80653;SDS011;70020;45.524;10.240;2023-06-04T11:10:36;8.68;;;5.38;;
80653;SDS011;70020;45.524;10.240;2023-06-04T11:13:03;9.63;;;5.65;;
80653;SDS011;70020;45.524;10.240;2023-06-04T11:15:39;8.52;;;5.60;;
80653;SDS011;70020;45.524;10.240;2023-06-04T11:18:12;8.00;;;5.60;;
80653;SDS011;70020;45.524;10.240;2023-06-04T11:20:39;8.02;;;5.43;;
80653;SDS011;70020;45.524;10.240;2023-06-04T11:23:05;9.30;;;6.05;;
80653;SDS011;70020;45.524;10.240;2023-06-04T11:25:31;9.25;;;6.38;;
80653;SDS011;70020;45.524;10.240;2023-06-04T11:27:58;8.48;;;5.88;;
80653;SDS011;70020;45.524;10.240;2023-06-04T11:30:25;9.07;;;6.25;;
80653;SDS011;70020;45.524;10.240;2023-06-04T11:32:59;9.52;;;5.40;;
80653;SDS011;70020;45.524;10.240;2023-06-04T11:35:28;8.25;;;5.80;;
80653;SDS011;70020;45.524;10.240;2023-06-04T11:37:55;8.05;;;5.57;;
80653;SDS011;70020;45.524;10.240;2023-06-04T11:40:22;7.57;;;5.40;;
80653;SDS011;70020;45.524;10.240;2023-06-04T11:42:48;7.75;;;5.85;;
80653;SDS011;70020;45.524;10.240;2023-06-04T11:45:16;6.72;;;5.25;;
80653;SDS011;70020;45.524;10.240;2023-06-04T11:47:52;7.45;;;5.07;;
80653;SDS011;70020;45.524;10.240;2023-06-04T11:50:20;6.97;;;5.82;;
80653;SDS011;70020;45.524;10.240;2023-06-04T11:52:47;7.75;;;6.05;;
80653;SDS011;70020;45.524;10.240;2023-06-04T11:55:13;9.90;;;4.90;;
80653;SDS011;70020;45.524;10.240;2023-06-04T11:57:40;6.75;;;5.38;;
80653;SDS011;70020;45.524;10.240;2023-06-04T12:00:09;6.18;;;4.90;;
80653;SDS011;70020;45.524;10.240;2023-06-04T12:02:39;9.73;;;4.70;;
80653;SDS011;70020;45.524;10.240;2023-06-04T12:05:15;7.90;;;5.05;;
80653;SDS011;70020;45.524;10.240;2023-06-04T12:07:45;8.20;;;5.30;;
80653;SDS011;70020;45.524;10.240;2023-06-04T12:10:12;7.80;;;5.22;;
80653;SDS011;70020;45.524;10.240;2023-06-04T12:12:38;8.50;;;4.93;;
80653;SDS011;70020;45.524;10.240;2023-06-04T12:15:05;10.57;;;6.18;;
80653;SDS011;70020;45.524;10.240;2023-06-04T12:17:32;7.88;;;5.90;;
80653;SDS011;70020;45.524;10.240;2023-06-04T12:19:58;6.47;;;5.38;;
80653;SDS011;70020;45.524;10.240;2023-06-04T12:22:24;7.70;;;5.60;;
80653;SDS011;70020;45.524;10.240;2023-06-04T12:24:52;8.60;;;5.20;;
80653;SDS011;70020;45.524;10.240;2023-06-04T12:27:20;15.55;;;5.47;;
80653;SDS011;70020;45.524;10.240;2023-06-04T12:32:29;8.80;;;5.20;;
80653;SDS011;70020;45.524;10.240;2023-06-04T12:34:54;6.90;;;5.22;;
80653;SDS011;70020;45.524;10.240;2023-06-04T12:37:21;8.43;;;5.05;;
80653;SDS011;70020;45.524;10.240;2023-06-04T12:39:47;7.57;;;4.82;;
80653;SDS011;70020;45.524;10.240;2023-06-04T12:42:13;6.53;;;5.03;;
80653;SDS011;70020;45.524;10.240;2023-06-04T12:44:39;6.22;;;4.85;;
80653;SDS011;70020;45.524;10.240;2023-06-04T12:47:05;6.22;;;4.03;;
80653;SDS011;70020;45.524;10.240;2023-06-04T12:49:31;16.75;;;5.18;;
80653;SDS011;70020;45.524;10.240;2023-06-04T12:51:57;6.15;;;4.45;;
80653;SDS011;70020;45.524;10.240;2023-06-04T12:54:27;6.78;;;4.85;;
80653;SDS011;70020;45.524;10.240;2023-06-04T12:56:53;5.38;;;4.45;;
80653;SDS011;70020;45.524;10.240;2023-06-04T12:59:20;7.30;;;4.55;;
80653;SDS011;70020;45.524;10.240;2023-06-04T13:01:49;6.90;;;4.75;;
80653;SDS011;70020;45.524;10.240;2023-06-04T13:04:15;7.40;;;4.22;;
80653;SDS011;70020;45.524;10.240;2023-06-04T13:06:41;6.35;;;4.30;;
80653;SDS011;70020;45.524;10.240;2023-06-04T13:09:07;7.07;;;4.20;;
80653;SDS011;70020;45.524;10.240;2023-06-04T13:11:40;6.85;;;4.43;;
80653;SDS011;70020;45.524;10.240;2023-06-04T13:14:08;6.70;;;4.43;;
80653;SDS011;70020;45.524;10.240;2023-06-04T13:16:34;8.27;;;4.55;;
80653;SDS011;70020;45.524;10.240;2023-06-04T13:19:00;4.82;;;4.07;;
80653;SDS011;70020;45.524;10.240;2023-06-04T13:21:27;6.35;;;4.38;;
80653;SDS011;70020;45.524;10.240;2023-06-04T13:23:52;6.93;;;4.70;;
80653;SDS011;70020;45.524;10.240;2023-06-04T13:26:18;5.20;;;3.90;;
80653;SDS011;70020;45.524;10.240;2023-06-04T13:28:45;4.72;;;4.22;;
80653;SDS011;70020;45.524;10.240;2023-06-04T13:31:10;5.35;;;3.92;;
80653;SDS011;70020;45.524;10.240;2023-06-04T13:33:36;5.82;;;4.20;;
80653;SDS011;70020;45.524;10.240;2023-06-04T13:36:02;7.35;;;4.00;;
80653;SDS011;70020;45.524;10.240;2023-06-04T13:38:28;7.13;;;3.95;;
80653;SDS011;70020;45.524;10.240;2023-06-04T13:40:57;8.88;;;3.90;;
80653;SDS011;70020;45.524;10.240;2023-06-04T13:43:23;5.45;;;4.03;;
80653;SDS011;70020;45.524;10.240;2023-06-04T13:45:48;4.40;;;3.92;;
80653;SDS011;70020;45.524;10.240;2023-06-04T13:48:14;4.05;;;3.65;;
80653;SDS011;70020;45.524;10.240;2023-06-04T13:50:40;5.30;;;4.07;;
80653;SDS011;70020;45.524;10.240;2023-06-04T13:53:07;6.55;;;4.13;;
80653;SDS011;70020;45.524;10.240;2023-06-04T13:55:33;5.03;;;4.05;;
80653;SDS011;70020;45.524;10.240;2023-06-04T13:57:59;4.95;;;4.25;;
80653;SDS011;70020;45.524;10.240;2023-06-04T14:00:25;5.65;;;4.30;;
80653;SDS011;70020;45.524;10.240;2023-06-04T14:02:51;5.43;;;3.88;;
80653;SDS011;70020;45.524;10.240;2023-06-04T14:05:17;5.05;;;4.07;;
80653;SDS011;70020;45.524;10.240;2023-06-04T14:07:43;5.07;;;4.28;;
80653;SDS011;70020;45.524;10.240;2023-06-04T14:10:12;4.55;;;4.13;;
80653;SDS011;70020;45.524;10.240;2023-06-04T14:12:38;6.03;;;4.53;;
80653;SDS011;70020;45.524;10.240;2023-06-04T14:15:07;5.28;;;4.57;;
80653;SDS011;70020;45.524;10.240;2023-06-04T14:17:33;6.63;;;4.25;;
80653;SDS011;70020;45.524;10.240;2023-06-04T14:20:00;5.03;;;4.45;;
80653;SDS011;70020;45.524;10.240;2023-06-04T14:22:26;4.88;;;4.07;;
80653;SDS011;70020;45.524;10.240;2023-06-04T14:24:52;6.63;;;4.90;;
80653;SDS011;70020;45.524;10.240;2023-06-04T14:27:17;5.57;;;4.55;;
80653;SDS011;70020;45.524;10.240;2023-06-04T14:29:43;4.85;;;4.18;;
80653;SDS011;70020;45.524;10.240;2023-06-04T14:32:09;6.85;;;4.50;;
80653;SDS011;70020;45.524;10.240;2023-06-04T14:34:35;6.03;;;4.68;;
80653;SDS011;70020;45.524;10.240;2023-06-04T14:37:00;6.22;;;4.40;;
80653;SDS011;70020;45.524;10.240;2023-06-04T14:39:26;6.13;;;4.25;;
80653;SDS011;70020;45.524;10.240;2023-06-04T14:41:53;5.55;;;4.28;;
80653;SDS011;70020;45.524;10.240;2023-06-04T14:44:19;5.32;;;4.47;;
80653;SDS011;70020;45.524;10.240;2023-06-04T14:46:45;6.75;;;5.53;;
80653;SDS011;70020;45.524;10.240;2023-06-04T14:49:11;5.88;;;5.07;;
80653;SDS011;70020;45.524;10.240;2023-06-04T14:51:37;6.65;;;5.13;;
80653;SDS011;70020;45.524;10.240;2023-06-04T14:54:05;5.50;;;4.28;;
80653;SDS011;70020;45.524;10.240;2023-06-04T14:56:30;5.55;;;4.50;;
80653;SDS011;70020;45.524;10.240;2023-06-04T14:58:57;5.30;;;4.78;;
80653;SDS011;70020;45.524;10.240;2023-06-04T15:01:24;6.38;;;5.10;;
80653;SDS011;70020;45.524;10.240;2023-06-04T15:03:50;7.63;;;5.10;;
80653;SDS011;70020;45.524;10.240;2023-06-04T15:06:16;5.30;;;4.72;;
80653;SDS011;70020;45.524;10.240;2023-06-04T15:08:42;7.38;;;4.90;;
80653;SDS011;70020;45.524;10.240;2023-06-04T15:11:09;7.75;;;5.10;;
80653;SDS011;70020;45.524;10.240;2023-06-04T15:13:36;7.72;;;5.38;;
80653;SDS011;70020;45.524;10.240;2023-06-04T15:16:02;8.82;;;5.13;;
80653;SDS011;70020;45.524;10.240;2023-06-04T15:18:27;6.00;;;4.60;;
80653;SDS011;70020;45.524;10.240;2023-06-04T15:20:53;6.30;;;4.32;;
80653;SDS011;70020;45.524;10.240;2023-06-04T15:23:19;8.38;;;5.45;;
80653;SDS011;70020;45.524;10.240;2023-06-04T15:25:45;6.45;;;5.28;;
80653;SDS011;70020;45.524;10.240;2023-06-04T15:28:11;8.73;;;5.13;;
80653;SDS011;70020;45.524;10.240;2023-06-04T15:30:36;6.45;;;5.55;;
80653;SDS011;70020;45.524;10.240;2023-06-04T15:33:03;8.10;;;4.88;;
80653;SDS011;70020;45.524;10.240;2023-06-04T15:35:29;6.45;;;5.30;;
80653;SDS011;70020;45.524;10.240;2023-06-04T15:37:55;9.20;;;6.38;;
80653;SDS011;70020;45.524;10.240;2023-06-04T15:40:21;8.65;;;6.43;;
80653;SDS011;70020;45.524;10.240;2023-06-04T15:42:47;5.85;;;4.93;;
80653;SDS011;70020;45.524;10.240;2023-06-04T15:45:12;9.50;;;5.15;;
80653;SDS011;70020;45.524;10.240;2023-06-04T15:47:38;7.82;;;4.50;;
80653;SDS011;70020;45.524;10.240;2023-06-04T15:50:04;8.07;;;5.35;;
80653;SDS011;70020;45.524;10.240;2023-06-04T15:52:31;7.57;;;5.90;;
80653;SDS011;70020;45.524;10.240;2023-06-04T15:54:57;6.65;;;4.97;;
80653;SDS011;70020;45.524;10.240;2023-06-04T15:57:23;7.20;;;5.70;;
80653;SDS011;70020;45.524;10.240;2023-06-04T15:59:49;6.50;;;4.68;;
80653;SDS011;70020;45.524;10.240;2023-06-04T16:02:14;6.38;;;5.13;;
80653;SDS011;70020;45.524;10.240;2023-06-04T16:04:40;5.03;;;4.50;;
80653;SDS011;70020;45.524;10.240;2023-06-04T16:07:07;5.72;;;4.30;;